Dublin, Ireland
Current Conditions -  °F | °C
As of 10:30 AM on Friday 21 Nov 2014 (Local Time) from EIDW Reporting Station
Overcast Overcast  
Wind Chill: 41°   Ceiling: 1700
Heat Index: 48°   Visibility: 6mi
Dew Point: 45°   Wind: 21mph
Humidity: 87%   Direction: 130°SE
Pressure: 29.88"   Gusts: NA
Location:  53.33°N, 6.25°W
Report Text: EIDW 211030Z 13018KT 9999 SCT013 OVC017 09/07 Q1012 NOSIG
Loading
Personal Weather Stations






























Interactive Weather Map New forecast layout! Learn more

10-Day Weather Forecast

Advertisements
Track Severe Weather on mobile